Terminal Aerodrome Forecast
Issued by NWS

Home | Current Version | Previous Version | Text Only | Print | Product List | Glossary On
Versions: 1 2 3 4 5 6 7 8 9 10 11 12 13 14 15 16 17 18 19 20 21 22 23 24 25 26 27 28 29 30 31 32 33
745
FTUS45 KVEF 221729
TAFLAS
TAF
KLAS 221729Z 2218/2318 15011KT P6SM FEW070 SCT120 BKN200
     FM221900 16012G18KT P6SM VCSH FEW070 SCT120 BKN200
     FM222100 22012G18KT P6SM VCSH SCT070 BKN120
     FM230200 31010KT P6SM SCT070 BKN120
     FM230400 20009KT P6SM FEW070 BKN110
     FM231500 16006KT P6SM BKN090=

USA.gov is the U.S. government's official web portal to all federal, state and local government web resources and services.